createdAt,value
2019-04-29T00:01:33.056Z,6.93
2019-04-29T00:04:38.852Z,10.10
2019-04-29T00:07:44.615Z,4.77
2019-04-29T00:10:50.293Z,5.17
2019-04-29T00:13:56.163Z,7.43
2019-04-29T00:17:11.288Z,6.37
2019-04-29T00:20:23.746Z,5.97
2019-04-29T00:23:29.454Z,5.03
2019-04-29T00:26:35.293Z,4.27
2019-04-29T00:29:41.020Z,4.50
2019-04-29T00:32:46.815Z,4.83
2019-04-29T00:35:52.669Z,6.13
2019-04-29T00:39:16.224Z,4.53
2019-04-29T00:42:34.723Z,5.13
2019-04-29T00:45:40.674Z,9.20
2019-04-29T00:48:46.358Z,4.47
2019-04-29T00:51:52.065Z,4.97
2019-04-29T00:55:03.604Z,6.23
2019-04-29T00:58:09.277Z,5.80
2019-04-29T01:01:19.497Z,10.60
2019-04-29T01:04:25.248Z,5.00
2019-04-29T01:07:31.002Z,7.27
2019-04-29T01:10:43.778Z,4.70
2019-04-29T01:13:49.566Z,6.13
2019-04-29T01:16:55.314Z,6.23
2019-04-29T01:20:01.004Z,5.17
2019-04-29T01:23:08.077Z,4.57
2019-04-29T01:26:38.403Z,6.57
2019-04-29T01:29:44.217Z,6.10
2019-04-29T01:32:49.900Z,5.60
2019-04-29T01:36:10.506Z,6.90
2019-04-29T01:39:17.682Z,4.73
2019-04-29T01:42:33.809Z,5.77
2019-04-29T01:45:39.508Z,7.33
2019-04-29T01:48:45.146Z,7.00
2019-04-29T01:51:50.922Z,6.20
2019-04-29T01:54:57.722Z,3.07
2019-04-29T01:58:03.404Z,5.30
2019-04-29T02:01:09.115Z,5.53
2019-04-29T02:04:14.768Z,4.80
2019-04-29T02:07:20.590Z,6.83
2019-04-29T02:10:32.751Z,6.10
2019-04-29T02:13:38.437Z,6.37
2019-04-29T02:16:44.108Z,6.27
2019-04-29T02:19:49.775Z,6.13
2019-04-29T02:23:26.628Z,8.00
2019-04-29T02:26:32.353Z,7.73
2019-04-29T02:29:38.002Z,7.10
2019-04-29T02:32:43.677Z,7.40
2019-04-29T02:35:49.321Z,5.97
2019-04-29T02:39:12.728Z,7.70
2019-04-29T02:42:36.195Z,9.07
2019-04-29T02:45:42.990Z,10.33
2019-04-29T02:48:48.764Z,7.23
2019-04-29T02:51:54.493Z,8.60
2019-04-29T02:55:02.170Z,8.20
2019-04-29T02:58:22.669Z,7.30
2019-04-29T03:01:45.964Z,8.83
2019-04-29T03:05:12.895Z,8.53
2019-04-29T03:08:18.560Z,7.30
2019-04-29T03:11:24.254Z,6.17
2019-04-29T03:14:30.081Z,6.80
2019-04-29T03:17:37.392Z,7.30
2019-04-29T03:21:08.141Z,7.23
2019-04-29T03:24:13.854Z,4.77
2019-04-29T03:27:19.583Z,5.93
2019-04-29T03:30:25.264Z,7.90
2019-04-29T03:33:30.923Z,8.40
2019-04-29T03:36:36.592Z,11.03
2019-04-29T03:39:42.371Z,8.07
2019-04-29T03:42:48.091Z,7.47
2019-04-29T03:45:54.076Z,7.33
2019-04-29T03:48:59.718Z,5.77
2019-04-29T03:52:05.678Z,6.50
2019-04-29T03:55:11.353Z,7.23
2019-04-29T03:58:17.054Z,6.23
2019-04-29T04:01:28.509Z,7.47
2019-04-29T04:04:51.916Z,4.77
2019-04-29T04:08:02.429Z,5.57
2019-04-29T04:11:08.271Z,5.50
2019-04-29T04:14:14.014Z,7.27
2019-04-29T04:17:30.328Z,5.33
2019-04-29T04:20:36.191Z,5.93
2019-04-29T04:23:41.840Z,5.53
2019-04-29T04:26:47.704Z,6.33
2019-04-29T04:29:53.515Z,7.93
2019-04-29T04:32:59.297Z,6.67
2019-04-29T04:36:05.031Z,7.03
2019-04-29T04:39:10.922Z,6.80
2019-04-29T04:42:16.819Z,6.27
2019-04-29T04:45:23.655Z,6.40
2019-04-29T04:48:29.310Z,6.37
2019-04-29T04:51:35.117Z,6.20
2019-04-29T04:54:40.854Z,6.90
2019-04-29T04:57:48.249Z,6.40
2019-04-29T05:00:57.712Z,7.47
2019-04-29T05:04:10.359Z,6.10
2019-04-29T05:07:23.251Z,7.20
2019-04-29T05:10:33.040Z,8.13
2019-04-29T05:13:38.891Z,5.33
2019-04-29T05:16:44.662Z,8.40
2019-04-29T05:19:57.253Z,7.97
2019-04-29T05:23:03.274Z,5.57
2019-04-29T05:26:10.460Z,5.83
2019-04-29T05:29:16.239Z,6.83
2019-04-29T05:32:25.877Z,5.57
2019-04-29T05:35:49.515Z,6.13
2019-04-29T05:39:14.077Z,6.00
2019-04-29T05:42:19.739Z,4.87
2019-04-29T05:45:32.818Z,7.27
2019-04-29T05:48:38.578Z,9.00
2019-04-29T05:52:03.256Z,8.70
2019-04-29T05:55:09.428Z,8.07
2019-04-29T05:58:16.583Z,8.17
2019-04-29T06:01:25.573Z,6.57
2019-04-29T06:04:31.395Z,6.07
2019-04-29T06:07:37.051Z,8.03
2019-04-29T06:10:42.792Z,6.87
2019-04-29T06:13:48.537Z,9.80
2019-04-29T06:16:57.487Z,5.37
2019-04-29T06:20:03.490Z,6.30
2019-04-29T06:23:09.132Z,9.90
2019-04-29T06:26:14.897Z,7.27
2019-04-29T06:29:22.928Z,9.37
2019-04-29T06:32:28.619Z,6.37
2019-04-29T06:35:34.322Z,6.60
2019-04-29T06:38:40.039Z,8.23
2019-04-29T06:41:46.972Z,15.63
2019-04-29T06:44:54.037Z,9.83
2019-04-29T06:47:59.914Z,9.17
2019-04-29T06:51:05.597Z,6.73
2019-04-29T06:54:11.291Z,10.90
2019-04-29T06:57:16.971Z,16.37
2019-04-29T07:00:23.964Z,6.73
2019-04-29T07:03:29.870Z,37.73
2019-04-29T07:06:56.417Z,7.33
2019-04-29T07:09:49.796Z,7.83
2019-04-29T07:12:55.497Z,7.17
2019-04-29T07:16:01.283Z,8.87
2019-04-29T07:19:07.079Z,7.53
2019-04-29T07:22:12.842Z,7.03
2019-04-29T07:25:18.553Z,7.73
2019-04-29T07:28:24.348Z,8.90
2019-04-29T07:31:34.818Z,6.90
2019-04-29T07:34:42.053Z,11.87
2019-04-29T07:37:47.730Z,8.80
2019-04-29T07:40:53.550Z,6.40
2019-04-29T07:43:59.279Z,6.10
2019-04-29T07:47:05.098Z,10.57
2019-04-29T07:50:11.761Z,5.83
2019-04-29T07:53:20.981Z,8.70
2019-04-29T07:56:25.542Z,9.30
2019-04-29T07:59:33.753Z,12.27
2019-04-29T08:02:38.728Z,11.10
2019-04-29T08:05:44.405Z,6.50
2019-04-29T08:08:54.997Z,7.23
2019-04-29T08:11:59.055Z,10.93
2019-04-29T08:15:07.734Z,9.07
2019-04-29T08:18:16.346Z,8.33
2019-04-29T08:21:20.808Z,8.93
2019-04-29T08:24:26.486Z,6.33
2019-04-29T08:27:39.832Z,12.33
2019-04-29T08:30:41.819Z,6.90
2019-04-29T08:33:48.520Z,10.17
2019-04-29T08:36:54.384Z,9.40
2019-04-29T08:40:15.090Z,8.23
2019-04-29T08:43:25.397Z,7.57
2019-04-29T08:46:51.723Z,6.40
2019-04-29T08:49:57.942Z,7.67
2019-04-29T08:53:04.031Z,9.97
2019-04-29T08:56:10.551Z,5.67
2019-04-29T08:59:20.659Z,7.23
2019-04-29T09:02:34.969Z,7.47
2019-04-29T09:05:34.868Z,8.00
2019-04-29T09:08:54.018Z,7.67
2019-04-29T09:11:49.428Z,8.87
2019-04-29T09:14:55.337Z,8.07
2019-04-29T09:18:01.009Z,7.53
2019-04-29T09:21:06.803Z,7.17
2019-04-29T09:24:12.455Z,5.77
2019-04-29T09:27:19.333Z,7.93
2019-04-29T09:30:25.094Z,5.30
2019-04-29T09:33:30.913Z,6.67
2019-04-29T09:36:37.192Z,7.93
2019-04-29T09:39:45.526Z,8.37
2019-04-29T09:43:16.068Z,4.97
2019-04-29T09:46:25.483Z,6.57
2019-04-29T09:49:31.206Z,5.30
2019-04-29T09:52:36.894Z,9.77
2019-04-29T09:55:42.765Z,8.03
2019-04-29T09:58:50.083Z,6.27
2019-04-29T10:02:05.252Z,5.07
2019-04-29T10:05:28.906Z,5.07
2019-04-29T10:08:34.663Z,7.87
2019-04-29T10:11:40.522Z,7.17
2019-04-29T10:14:46.474Z,6.43
2019-04-29T10:18:07.705Z,3.93
2019-04-29T10:21:16.719Z,6.47
2019-04-29T10:24:22.470Z,7.63
2019-04-29T10:27:28.121Z,4.53
2019-04-29T10:30:34.132Z,11.53
2019-04-29T10:33:39.833Z,5.57
2019-04-29T10:36:45.611Z,4.57
2019-04-29T10:40:25.949Z,7.33
2019-04-29T10:43:53.439Z,10.10
2019-04-29T10:47:15.770Z,7.20
2019-04-29T10:50:29.542Z,8.73
2019-04-29T10:53:35.906Z,7.43
2019-04-29T10:56:41.878Z,6.33
2019-04-29T10:59:50.377Z,9.77
2019-04-29T11:02:56.498Z,8.07
2019-04-29T11:06:02.461Z,10.33
2019-04-29T11:09:31.472Z,10.20
2019-04-29T11:12:37.229Z,18.00
2019-04-29T11:15:44.915Z,8.93
2019-04-29T11:18:50.520Z,11.50
2019-04-29T11:21:56.470Z,11.63
2019-04-29T11:25:30.013Z,9.70
2019-04-29T11:28:37.123Z,12.07
2019-04-29T11:31:43.086Z,10.83
2019-04-29T11:35:01.783Z,10.93
2019-04-29T11:38:10.059Z,14.87
2019-04-29T11:41:19.874Z,11.47
2019-04-29T11:44:26.523Z,14.67
2019-04-29T11:47:31.309Z,12.30
2019-04-29T11:50:57.478Z,17.07
2019-04-29T11:54:03.361Z,11.33
2019-04-29T11:57:12.579Z,12.83
2019-04-29T12:00:36.278Z,11.43
2019-04-29T12:03:44.106Z,15.60
2019-04-29T12:06:51.143Z,12.93
2019-04-29T12:09:57.386Z,16.10
2019-04-29T12:13:05.815Z,10.60
2019-04-29T12:16:19.863Z,11.73
2019-04-29T12:19:30.120Z,21.70
2019-04-29T12:22:47.636Z,36.40
2019-04-29T12:25:44.350Z,16.53
2019-04-29T12:28:50.031Z,19.10
2019-04-29T12:32:20.623Z,22.63
2019-04-29T12:35:30.543Z,19.40
2019-04-29T12:38:57.920Z,19.80
2019-04-29T12:42:21.449Z,21.30
2019-04-29T12:45:31.087Z,19.93
2019-04-29T12:48:38.808Z,20.80
2019-04-29T12:51:44.732Z,17.10
2019-04-29T12:54:50.411Z,22.33
2019-04-29T12:57:56.088Z,21.47
2019-04-29T13:01:12.639Z,18.67
2019-04-29T13:04:45.012Z,23.10
2019-04-29T13:08:23.934Z,24.27
2019-04-29T13:11:45.572Z,21.80
2019-04-29T13:14:40.526Z,18.97
2019-04-29T13:18:03.653Z,18.73
2019-04-29T13:21:10.484Z,18.43
2019-04-29T13:24:23.102Z,16.37
2019-04-29T13:27:25.328Z,12.17
2019-04-29T13:30:28.597Z,15.83
2019-04-29T13:33:34.335Z,14.23
2019-04-29T13:36:41.688Z,23.47
2019-04-29T13:39:47.346Z,20.77
2019-04-29T13:42:53.123Z,17.00
2019-04-29T13:46:20.634Z,19.73
2019-04-29T13:49:37.212Z,12.87
2019-04-29T13:52:42.983Z,14.43
2019-04-29T13:55:49.939Z,18.90
2019-04-29T13:59:05.402Z,14.60
2019-04-29T14:02:17.143Z,17.37
2019-04-29T14:05:23.712Z,16.23
2019-04-29T14:08:30.619Z,19.63
2019-04-29T14:11:36.335Z,14.17
2019-04-29T14:14:42.198Z,18.93
2019-04-29T14:17:48.315Z,10.47
2019-04-29T14:20:55.051Z,12.50
2019-04-29T14:24:00.957Z,13.70
2019-04-29T14:27:07.015Z,20.97
2019-04-29T14:30:16.579Z,16.77
2019-04-29T14:33:30.445Z,15.47
2019-04-29T14:36:36.339Z,16.33
2019-04-29T14:39:41.972Z,13.57
2019-04-29T14:43:31.017Z,17.63
2019-04-29T14:47:01.890Z,13.43
2019-04-29T14:50:10.584Z,16.57
2019-04-29T14:53:19.469Z,19.30
2019-04-29T14:56:23.193Z,19.80
2019-04-29T14:59:29.281Z,13.80
2019-04-29T15:02:37.293Z,15.80
2019-04-29T15:05:52.512Z,14.97
2019-04-29T15:08:58.767Z,13.13
2019-04-29T15:12:27.129Z,18.13
2019-04-29T15:16:03.826Z,19.50
2019-04-29T15:19:24.375Z,16.70
2019-04-29T15:22:33.399Z,18.50
2019-04-29T15:25:39.094Z,15.93
2019-04-29T15:28:54.421Z,15.00
2019-04-29T15:32:00.287Z,14.87
2019-04-29T15:35:06.522Z,13.57
2019-04-29T15:38:12.185Z,13.47
2019-04-29T15:41:18.242Z,13.40
2019-04-29T15:44:24.395Z,16.47
2019-04-29T15:47:31.464Z,12.50
2019-04-29T15:50:39.065Z,14.27
2019-04-29T15:53:45.186Z,13.53
2019-04-29T15:56:52.777Z,17.27
2019-04-29T16:00:01.441Z,14.53
2019-04-29T16:03:06.751Z,14.53
2019-04-29T16:06:41.434Z,19.40
2019-04-29T16:10:20.746Z,14.23
2019-04-29T16:13:27.903Z,17.73
2019-04-29T16:16:49.351Z,22.00
2019-04-29T16:19:59.469Z,13.90
2019-04-29T16:23:06.022Z,12.47
2019-04-29T16:26:13.452Z,16.77
2019-04-29T16:29:21.137Z,10.57
2019-04-29T16:32:47.728Z,14.07
2019-04-29T16:36:04.924Z,12.70
2019-04-29T16:39:12.228Z,10.27
2019-04-29T16:42:39.020Z,14.77
2019-04-29T16:46:00.926Z,18.40
2019-04-29T16:49:06.877Z,13.87
2019-04-29T16:52:15.685Z,16.63
2019-04-29T16:55:22.357Z,12.03
2019-04-29T16:58:28.850Z,11.17
2019-04-29T17:01:34.830Z,14.87
2019-04-29T17:04:41.023Z,15.77
2019-04-29T17:07:47.123Z,14.20
2019-04-29T17:11:05.111Z,15.90
2019-04-29T17:14:12.989Z,16.87
2019-04-29T17:17:42.655Z,18.10
2019-04-29T17:20:40.786Z,14.97
2019-04-29T17:23:46.690Z,13.97
2019-04-29T17:27:03.347Z,13.33
2019-04-29T17:30:30.167Z,12.87
2019-04-29T17:33:49.698Z,12.43
2019-04-29T17:36:50.387Z,17.70
2019-04-29T17:39:57.162Z,14.50
2019-04-29T17:43:23.528Z,11.80
2019-04-29T17:46:50.979Z,10.77
2019-04-29T17:50:30.127Z,13.40
2019-04-29T17:53:36.365Z,14.50
2019-04-29T17:57:25.385Z,13.77
2019-04-29T18:00:42.236Z,13.57
2019-04-29T18:03:58.063Z,14.30
2019-04-29T18:07:25.828Z,15.33
2019-04-29T18:10:40.192Z,18.43
2019-04-29T18:13:46.235Z,18.53
2019-04-29T18:16:52.269Z,15.50
2019-04-29T18:20:17.476Z,15.37
2019-04-29T18:23:57.948Z,22.57
2019-04-29T18:27:11.553Z,17.80
2019-04-29T18:30:34.642Z,23.40
2019-04-29T18:33:30.440Z,14.23
2019-04-29T18:36:36.281Z,17.23
2019-04-29T18:39:47.779Z,17.23
2019-04-29T18:43:24.337Z,20.07
2019-04-29T18:46:35.177Z,19.07
2019-04-29T18:49:41.104Z,14.63
2019-04-29T18:52:46.884Z,19.40
2019-04-29T18:55:55.104Z,13.07
2019-04-29T18:59:02.306Z,13.87
2019-04-29T19:02:15.565Z,16.47
2019-04-29T19:05:32.464Z,12.63
2019-04-29T19:08:38.009Z,13.77
2019-04-29T19:11:43.676Z,16.93
2019-04-29T19:14:49.441Z,12.43
2019-04-29T19:18:01.362Z,20.33
2019-04-29T19:21:03.731Z,13.73
2019-04-29T19:24:09.411Z,18.03
2019-04-29T19:27:16.126Z,14.07
2019-04-29T19:30:26.289Z,12.80
2019-04-29T19:33:30.654Z,16.97
2019-04-29T19:36:37.527Z,24.67
2019-04-29T19:39:44.933Z,27.23
2019-04-29T19:42:52.186Z,22.67
2019-04-29T19:45:57.909Z,19.77
2019-04-29T19:49:08.443Z,17.40
2019-04-29T19:52:11.280Z,20.17
2019-04-29T19:55:17.231Z,19.23
2019-04-29T19:58:29.148Z,19.57
2019-04-29T20:01:32.709Z,17.87
2019-04-29T20:04:54.159Z,20.17
2019-04-29T20:08:01.175Z,15.07
2019-04-29T20:11:14.612Z,21.50
2019-04-29T20:14:20.644Z,24.83
2019-04-29T20:17:53.637Z,18.23
2019-04-29T20:21:28.811Z,20.63
2019-04-29T20:24:15.437Z,19.07
2019-04-29T20:27:20.570Z,16.67
2019-04-29T20:30:27.471Z,19.37
2019-04-29T20:33:33.412Z,23.93
2019-04-29T20:36:42.857Z,14.57
2019-04-29T20:40:00.800Z,15.77
2019-04-29T20:43:08.392Z,17.60
2019-04-29T20:46:17.635Z,13.63
2019-04-29T20:49:22.930Z,16.63
2019-04-29T20:52:38.607Z,18.13
2019-04-29T20:55:46.114Z,19.47
2019-04-29T20:58:52.264Z,15.43
2019-04-29T21:02:12.026Z,18.70
2019-04-29T21:05:10.023Z,10.80
2019-04-29T21:08:19.237Z,17.67
2019-04-29T21:11:33.347Z,19.47
2019-04-29T21:14:43.559Z,17.50
2019-04-29T21:17:49.430Z,10.47
2019-04-29T21:20:55.311Z,13.97
2019-04-29T21:24:06.485Z,18.30
2019-04-29T21:27:09.628Z,18.17
2019-04-29T21:30:15.634Z,15.17
2019-04-29T21:33:21.652Z,14.87
2019-04-29T21:36:39.976Z,13.37
2019-04-29T21:40:01.926Z,16.10
2019-04-29T21:43:13.960Z,18.80
2019-04-29T21:46:28.047Z,16.93
2019-04-29T21:49:27.667Z,16.23
2019-04-29T21:52:33.337Z,13.33
2019-04-29T21:55:39.053Z,21.83
2019-04-29T21:58:44.735Z,16.00
2019-04-29T22:01:50.446Z,14.97
2019-04-29T22:04:56.305Z,15.03
2019-04-29T22:08:02.112Z,14.50
2019-04-29T22:11:07.951Z,12.23
2019-04-29T22:14:14.078Z,13.20
2019-04-29T22:17:21.177Z,17.23
2019-04-29T22:20:27.056Z,15.33
2019-04-29T22:23:32.965Z,15.10
2019-04-29T22:26:38.747Z,16.87
2019-04-29T22:29:45.385Z,11.40
2019-04-29T22:32:58.064Z,14.40
2019-04-29T22:35:59.479Z,14.37
2019-04-29T22:39:06.367Z,17.53
2019-04-29T22:42:32.593Z,13.97
2019-04-29T22:45:38.467Z,10.40
2019-04-29T22:48:45.457Z,27.57
2019-04-29T22:51:54.585Z,17.77
2019-04-29T22:55:01.580Z,15.43
2019-04-29T22:58:09.647Z,15.00
2019-04-29T23:01:15.584Z,16.07
2019-04-29T23:04:21.440Z,16.23
2019-04-29T23:07:27.190Z,13.97
2019-04-29T23:10:32.879Z,14.00
2019-04-29T23:13:38.553Z,12.97
2019-04-29T23:16:45.443Z,15.23
2019-04-29T23:19:56.936Z,15.93
2019-04-29T23:23:07.646Z,12.17
2019-04-29T23:26:14.843Z,13.53
2019-04-29T23:29:20.933Z,16.03
2019-04-29T23:32:26.607Z,17.43
2019-04-29T23:35:32.297Z,13.53
2019-04-29T23:38:38.600Z,17.10
2019-04-29T23:41:45.413Z,17.93
2019-04-29T23:44:51.132Z,17.70
2019-04-29T23:47:56.902Z,22.07
2019-04-29T23:51:02.632Z,17.60
2019-04-29T23:54:08.333Z,13.57
2019-04-29T23:57:42.273Z,11.07
